Time;durP1;ratioP1;P1;durP2;ratioP2;P2;SDS_P1;SDS_P2;PMS_P1;PMS_P2;Temp;Humidity;BMP_temperature;BMP_pressure;BME280_temperature;BME280_humidity;BME280_pressure;Samples;Min_cycle;Max_cycle;Signal;HPM_P1;HPM_P2
2023/07/03 00:00:12;;;;;;;14.73;4.77;;;;;;;14.15;71.35;99507.00;4209683;28;21977;-72
2023/07/03 00:02:39;;;;;;;10.93;5.00;;;;;;;14.15;71.59;99507.88;4235347;28;22861;-72
2023/07/03 00:05:10;;;;;;;20.97;5.87;;;;;;;14.10;71.82;99511.16;4209013;28;20326;-74
2023/07/03 00:07:38;;;;;;;16.30;5.80;;;;;;;14.07;72.09;99513.44;4209475;28;20267;-74
2023/07/03 00:10:06;;;;;;;11.23;5.70;;;;;;;14.12;71.52;99518.31;4206827;28;20254;-72
2023/07/03 00:12:35;;;;;;;12.77;5.80;;;;;;;14.06;72.07;99515.28;4223178;28;20228;-73
2023/07/03 00:15:02;;;;;;;14.30;6.47;;;;;;;14.06;72.07;99512.56;4221983;28;20304;-75
2023/07/03 00:17:29;;;;;;;12.17;5.50;;;;;;;13.95;72.48;99518.53;4203588;28;20317;-72
2023/07/03 00:19:56;;;;;;;11.17;6.10;;;;;;;13.86;72.99;99519.69;4189669;28;20242;-74
2023/07/03 00:22:23;;;;;;;15.87;6.30;;;;;;;13.81;73.13;99514.81;4212497;28;20610;-72
2023/07/03 00:24:50;;;;;;;21.07;6.07;;;;;;;13.82;73.01;99521.94;4222701;28;20317;-73
2023/07/03 00:27:18;;;;;;;12.83;6.00;;;;;;;13.81;73.18;99533.03;4204712;28;20247;-65
2023/07/03 00:29:44;;;;;;;13.27;5.90;;;;;;;13.86;72.79;99531.38;4196231;28;20224;-66
2023/07/03 00:32:11;;;;;;;13.37;5.93;;;;;;;13.83;72.96;99529.06;4216215;28;20855;-64
2023/07/03 00:34:38;;;;;;;20.00;5.77;;;;;;;13.87;73.38;99543.13;4222001;28;23239;-64
2023/07/03 00:37:05;;;;;;;15.50;6.23;;;;;;;13.81;73.39;99538.47;4208536;28;20237;-66
2023/07/03 00:39:32;;;;;;;13.30;6.37;;;;;;;13.77;73.87;99535.28;4193295;28;21719;-66
2023/07/03 00:41:58;;;;;;;21.50;6.77;;;;;;;13.62;74.54;99540.72;4203929;28;21138;-64
2023/07/03 00:44:25;;;;;;;13.30;6.07;;;;;;;13.57;74.79;99538.56;4217680;28;20384;-65
2023/07/03 00:46:52;;;;;;;12.20;5.97;;;;;;;13.61;74.26;99541.75;4218022;28;20868;-65
2023/07/03 00:49:20;;;;;;;17.90;6.10;;;;;;;13.49;74.80;99544.09;4208757;28;22067;-63
2023/07/03 00:51:54;;;;;;;15.17;7.07;;;;;;;13.46;74.90;99539.06;4208530;28;22173;-64
2023/07/03 00:54:21;;;;;;;14.73;6.33;;;;;;;13.44;75.31;99543.84;4208273;28;22156;-65
2023/07/03 00:56:47;;;;;;;13.43;6.63;;;;;;;13.41;74.81;99544.22;4213616;28;20290;-65
2023/07/03 00:59:14;;;;;;;14.80;6.60;;;;;;;13.39;75.14;99549.84;4207315;28;20591;-63
2023/07/03 01:01:50;;;;;;;15.67;6.67;;;;;;;13.38;75.40;99550.88;4193038;28;20232;-65
2023/07/03 01:04:21;;;;;;;14.77;6.67;;;;;;;13.35;75.75;99553.09;4210733;28;20248;-65
2023/07/03 01:07:05;;;;;;;17.83;6.93;;;;;;;13.35;75.64;99551.22;4192304;28;22442;-65
2023/07/03 01:09:36;;;;;;;20.03;6.90;;;;;;;13.41;75.08;99550.50;4210002;28;20300;-65
2023/07/03 01:12:04;;;;;;;12.53;6.17;;;;;;;13.42;75.05;99554.91;4211260;28;20282;-66
2023/07/03 01:14:30;;;;;;;16.23;6.67;;;;;;;13.41;75.07;99547.78;4205503;28;24328;-65
2023/07/03 01:16:58;;;;;;;14.67;6.63;;;;;;;13.24;76.16;99555.25;4205885;28;21018;-66
2023/07/03 01:19:31;;;;;;;16.40;7.00;;;;;;;13.20;76.38;99547.66;4203742;28;20270;-64
2023/07/03 01:22:03;;;;;;;18.80;6.83;;;;;;;13.17;76.43;99548.88;4192539;28;20231;-65
2023/07/03 01:24:49;;;;;;;16.13;6.20;;;;;;;13.25;76.06;99550.66;4213318;28;20251;-65
2023/07/03 01:27:18;;;;;;;12.00;6.60;;;;;;;13.25;76.37;99554.22;4223662;28;22720;-66
2023/07/03 01:29:45;;;;;;;15.70;6.97;;;;;;;13.27;76.15;99548.59;4196610;28;20421;-65
2023/07/03 01:32:13;;;;;;;14.87;7.13;;;;;;;13.18;76.49;99545.09;4204368;28;20236;-66
2023/07/03 01:34:45;;;;;;;14.57;6.43;;;;;;;13.18;76.17;99545.09;4198789;28;20476;-65
2023/07/03 01:37:13;;;;;;;15.37;7.00;;;;;;;13.18;76.35;99555.97;4203243;28;20243;-64
2023/07/03 01:39:42;;;;;;;16.17;7.20;;;;;;;13.20;76.30;99548.50;4202546;28;20302;-65
2023/07/03 01:42:10;;;;;;;13.63;6.73;;;;;;;13.16;76.50;99555.34;4189266;28;20255;-66
2023/07/03 01:44:37;;;;;;;14.93;6.87;;;;;;;13.14;76.72;99563.66;4204515;28;20240;-64
2023/07/03 01:47:09;;;;;;;16.03;6.83;;;;;;;13.16;76.28;99556.16;4205291;28;21104;-65
2023/07/03 01:49:36;;;;;;;27.87;6.80;;;;;;;13.15;76.38;99561.81;4214556;28;21844;-64
2023/07/03 01:52:08;;;;;;;18.90;6.97;;;;;;;13.23;76.00;99564.44;4209641;28;20263;-65
2023/07/03 01:54:40;;;;;;;15.90;7.07;;;;;;;13.15;76.41;99565.34;4212802;28;20235;-64
2023/07/03 01:57:09;;;;;;;13.47;6.53;;;;;;;13.13;76.56;99561.13;4208188;28;21181;-65
2023/07/03 01:59:36;;;;;;;16.90;7.30;;;;;;;13.04;76.82;99559.53;4203950;28;20254;-64
2023/07/03 02:02:24;;;;;;;16.80;7.10;;;;;;;13.09;76.59;99562.56;4209486;28;20392;-65
2023/07/03 02:05:08;;;;;;;16.90;7.17;;;;;;;13.15;76.39;99564.53;4198409;28;20247;-65
2023/07/03 02:07:35;;;;;;;17.17;7.70;;;;;;;13.16;76.41;99566.22;4204324;28;20240;-66
2023/07/03 02:10:03;;;;;;;12.97;6.73;;;;;;;13.21;76.24;99565.66;4191084;28;22196;-64
2023/07/03 02:12:30;;;;;;;13.27;7.23;;;;;;;13.25;76.36;99558.81;4197780;28;20322;-64
2023/07/03 02:15:00;;;;;;;15.47;7.33;;;;;;;13.21;76.39;99561.06;4213572;28;20850;-63
2023/07/03 02:17:26;;;;;;;17.50;7.67;;;;;;;13.25;76.42;99556.09;4204697;28;20522;-64
2023/07/03 02:19:54;;;;;;;14.73;6.70;;;;;;;13.28;76.33;99562.00;4211955;28;20238;-65
2023/07/03 02:22:21;;;;;;;14.73;7.37;;;;;;;13.32;75.86;99565.19;4222696;28;20408;-66
2023/07/03 02:24:48;;;;;;;17.63;7.53;;;;;;;13.37;75.91;99583.66;4207125;28;20279;-65
2023/07/03 02:27:14;;;;;;;20.10;6.97;;;;;;;13.54;75.15;99568.88;4204769;28;20232;-64
2023/07/03 02:29:41;;;;;;;13.60;7.00;;;;;;;13.46;75.50;99571.69;4218130;28;20326;-64
2023/07/03 02:32:09;;;;;;;13.17;6.70;;;;;;;13.48;75.43;99575.06;4214759;28;20228;-63
2023/07/03 02:34:36;;;;;;;15.70;7.17;;;;;;;13.44;75.37;99568.31;4226852;28;20232;-65
2023/07/03 02:37:04;;;;;;;17.43;6.77;;;;;;;13.47;75.48;99568.78;4215158;28;20224;-65
2023/07/03 02:39:31;;;;;;;20.13;7.50;;;;;;;13.38;75.92;99575.34;4223946;28;20380;-64
2023/07/03 02:41:58;;;;;;;15.07;7.37;;;;;;;13.47;74.90;99570.66;4219993;28;20322;-65
2023/07/03 02:44:25;;;;;;;15.00;6.23;;;;;;;13.46;75.46;99577.13;4223896;28;20246;-64
2023/07/03 02:46:51;;;;;;;12.97;6.83;;;;;;;13.34;75.84;99568.56;4225030;28;20232;-65
2023/07/03 02:49:18;;;;;;;14.73;6.40;;;;;;;13.36;75.69;99579.25;4217055;28;20868;-64
2023/07/03 02:51:44;;;;;;;24.07;7.17;;;;;;;13.48;75.46;99583.22;4229096;28;20258;-65
2023/07/03 02:54:11;;;;;;;16.73;7.27;;;;;;;13.44;75.41;99582.72;4226998;28;20250;-63
2023/07/03 02:56:38;;;;;;;21.30;7.50;;;;;;;13.50;75.17;99589.31;4212126;28;20247;-64
2023/07/03 02:59:05;;;;;;;16.27;7.50;;;;;;;13.47;74.99;99582.38;4214212;28;21097;-63
2023/07/03 03:01:32;;;;;;;17.23;7.50;;;;;;;13.50;75.10;99588.47;4233354;28;20239;-65
2023/07/03 03:03:58;;;;;;;19.90;7.60;;;;;;;13.49;75.17;99584.91;4228658;28;20276;-65
2023/07/03 03:06:25;;;;;;;25.57;8.63;;;;;;;13.49;75.18;99592.22;4217799;28;20611;-63
2023/07/03 03:08:52;;;;;;;14.23;6.17;;;;;;;13.56;74.44;99582.28;4230894;28;20345;-64
2023/07/03 03:11:18;;;;;;;15.03;7.20;;;;;;;13.61;74.70;99596.16;4228431;28;20286;-63
2023/07/03 03:13:45;;;;;;;13.30;6.87;;;;;;;13.66;74.43;99584.72;4214331;28;20569;-62
2023/07/03 03:16:12;;;;;;;16.93;7.60;;;;;;;13.87;73.30;99592.94;4224349;28;21103;-67
2023/07/03 03:18:38;;;;;;;16.13;7.60;;;;;;;13.98;73.23;99594.31;4217366;28;20614;-63
2023/07/03 03:21:05;;;;;;;19.83;8.80;;;;;;;13.72;73.73;99592.09;4224383;28;21542;-66
2023/07/03 03:23:32;;;;;;;15.37;6.73;;;;;;;13.91;72.70;99591.53;4221383;28;21896;-65
2023/07/03 03:25:58;;;;;;;21.77;7.13;;;;;;;13.87;73.28;99603.00;4216286;28;23554;-65
2023/07/03 03:28:25;;;;;;;19.20;7.37;;;;;;;13.93;73.45;99600.34;4200276;28;21010;-66
2023/07/03 03:30:52;;;;;;;27.83;7.13;;;;;;;14.07;72.67;99600.53;4209320;28;20585;-65
2023/07/03 03:33:18;;;;;;;23.63;7.83;;;;;;;14.08;72.61;99602.22;4212341;28;22724;-66
2023/07/03 03:35:46;;;;;;;16.67;7.07;;;;;;;13.99;72.61;99604.19;4212079;28;21164;-65
2023/07/03 03:38:13;;;;;;;15.13;7.57;;;;;;;13.90;73.01;99608.03;4210827;28;20302;-65
2023/07/03 03:40:40;;;;;;;22.77;7.63;;;;;;;13.84;73.70;99604.22;4206637;28;23133;-64
2023/07/03 03:43:06;;;;;;;15.13;6.93;;;;;;;13.88;73.67;99605.50;4212716;28;20241;-64
2023/07/03 03:45:33;;;;;;;16.10;7.83;;;;;;;13.82;74.08;99603.56;4223310;28;20279;-63
2023/07/03 03:48:01;;;;;;;20.90;7.73;;;;;;;13.82;73.51;99603.56;4211051;28;21735;-65
2023/07/03 03:50:27;;;;;;;26.67;8.27;;;;;;;13.94;73.17;99598.47;4224912;28;20623;-66
2023/07/03 03:52:54;;;;;;;16.43;7.27;;;;;;;14.27;72.08;99601.59;4211383;28;21247;-65
2023/07/03 03:55:20;;;;;;;14.03;6.87;;;;;;;14.63;70.77;99594.41;4210952;28;20236;-65
2023/07/03 03:57:47;;;;;;;14.47;7.30;;;;;;;14.68;70.00;99593.88;4199694;28;20246;-65
2023/07/03 04:00:20;;;;;;;15.93;7.23;;;;;;;14.95;68.92;99592.22;4217794;28;20243;-66
2023/07/03 04:02:46;;;;;;;25.53;7.77;;;;;;;14.81;69.98;99590.41;4200462;28;20666;-64
2023/07/03 04:05:13;;;;;;;15.27;6.63;;;;;;;14.82;69.97;99608.44;4205527;28;20287;-64
2023/07/03 04:07:40;;;;;;;16.87;7.20;;;;;;;14.81;69.90;99604.88;4216426;28;21960;-64
2023/07/03 04:10:11;;;;;;;22.87;7.63;;;;;;;14.97;69.90;99600.19;4222539;28;20494;-65
2023/07/03 04:12:38;;;;;;;19.03;7.30;;;;;;;14.87;69.82;99581.47;4200366;28;20240;-63
2023/07/03 04:15:05;;;;;;;24.77;8.20;;;;;;;15.27;68.25;99591.81;4210310;28;20395;-65
2023/07/03 04:17:32;;;;;;;15.83;7.03;;;;;;;15.40;67.31;99593.81;4218705;28;20235;-64
2023/07/03 04:19:59;;;;;;;17.03;6.90;;;;;;;15.63;66.50;99590.78;4215715;28;20654;-65
2023/07/03 04:22:26;;;;;;;16.27;7.00;;;;;;;15.66;66.09;99595.84;4209333;28;20240;-64
2023/07/03 04:24:53;;;;;;;20.97;7.73;;;;;;;15.80;66.24;99600.34;4213985;28;21598;-65
2023/07/03 04:27:19;;;;;;;15.40;7.47;;;;;;;15.83;65.43;99596.38;4212632;28;20224;-65
2023/07/03 04:29:46;;;;;;;12.37;6.80;;;;;;;15.75;65.02;99591.06;4216724;28;25582;-64
2023/07/03 04:32:12;;;;;;;19.27;7.50;;;;;;;15.91;64.38;99596.22;4216217;28;21201;-64
2023/07/03 04:34:39;;;;;;;16.07;6.90;;;;;;;15.95;64.01;99597.47;4210435;28;20823;-66
2023/07/03 04:37:06;;;;;;;21.67;8.13;;;;;;;15.92;63.91;99591.59;4198010;28;20309;-65
2023/07/03 04:39:33;;;;;;;20.47;6.63;;;;;;;15.97;64.78;99589.94;4224118;28;20232;-66
2023/07/03 04:42:00;;;;;;;14.63;6.60;;;;;;;15.69;64.96;99593.56;4195732;28;20611;-65
2023/07/03 04:44:27;;;;;;;21.77;6.93;;;;;;;15.78;65.33;99596.94;4215212;28;20570;-66
2023/07/03 04:46:55;;;;;;;23.77;7.67;;;;;;;15.71;65.59;99597.97;4209181;28;21195;-65
2023/07/03 04:49:26;;;;;;;26.37;7.30;;;;;;;15.68;65.39;99594.59;4221346;28;22289;-66
2023/07/03 04:51:54;;;;;;;22.63;7.87;;;;;;;15.76;65.27;99601.75;4207349;28;20228;-65
2023/07/03 04:54:22;;;;;;;18.33;7.37;;;;;;;16.13;64.30;99604.28;4219721;28;20251;-65
2023/07/03 04:56:48;;;;;;;21.27;7.60;;;;;;;16.08;63.57;99604.88;4232841;28;21957;-66
2023/07/03 04:59:15;;;;;;;19.00;7.10;;;;;;;16.12;63.96;99600.72;4214454;28;22385;-67
2023/07/03 05:01:44;;;;;;;16.63;6.77;;;;;;;16.52;62.81;99608.16;4208419;28;22535;-64
2023/07/03 05:04:11;;;;;;;14.10;7.00;;;;;;;16.59;62.56;99611.75;4217608;28;22150;-65
2023/07/03 05:06:39;;;;;;;14.90;6.63;;;;;;;16.50;61.82;99604.78;4221608;28;20236;-64
2023/07/03 05:09:05;;;;;;;20.30;7.80;;;;;;;16.71;61.48;99609.25;4202662;28;20231;-64
2023/07/03 05:11:33;;;;;;;16.33;6.57;;;;;;;16.88;61.05;99619.78;4215378;28;20279;-65
2023/07/03 05:13:59;;;;;;;20.03;7.30;;;;;;;17.03;60.31;99614.97;4221902;28;20816;-65
2023/07/03 05:16:26;;;;;;;15.50;6.57;;;;;;;17.02;60.16;99624.25;4201734;28;20287;-65
2023/07/03 05:18:53;;;;;;;26.57;6.90;;;;;;;17.24;59.55;99629.50;4210871;28;20278;-64
2023/07/03 05:21:20;;;;;;;18.73;6.97;;;;;;;17.49;58.82;99624.22;4214449;28;22039;-64
2023/07/03 05:23:47;;;;;;;14.13;6.17;;;;;;;17.70;58.30;99625.00;4215809;28;20304;-67
2023/07/03 05:26:13;;;;;;;14.17;5.93;;;;;;;18.14;56.60;99619.84;4211120;28;20240;-68
2023/07/03 05:28:40;;;;;;;13.87;5.60;;;;;;;18.17;56.29;99614.78;4198939;28;20501;-65
2023/07/03 05:31:07;;;;;;;16.37;6.57;;;;;;;18.36;55.83;99623.09;4217751;28;20871;-65
2023/07/03 05:33:35;;;;;;;16.03;6.13;;;;;;;18.61;55.55;99616.84;4226113;28;21108;-64
2023/07/03 05:36:02;;;;;;;20.37;6.40;;;;;;;19.02;53.55;99614.69;4204837;28;20243;-63
2023/07/03 05:38:29;;;;;;;13.50;6.70;;;;;;;19.24;53.68;99623.38;4219235;28;22651;-66
2023/07/03 05:40:55;;;;;;;15.03;5.80;;;;;;;19.41;51.35;99618.16;4210324;28;20411;-65
2023/07/03 05:43:22;;;;;;;18.10;6.30;;;;;;;19.73;51.33;99632.59;4224521;28;21440;-65
2023/07/03 05:45:49;;;;;;;12.60;5.83;;;;;;;19.73;51.81;99640.84;4223702;28;20389;-66
2023/07/03 05:48:16;;;;;;;15.90;5.57;;;;;;;20.12;50.36;99643.41;4222006;28;20315;-65
2023/07/03 05:50:44;;;;;;;14.83;5.57;;;;;;;20.44;48.62;99640.44;4196380;28;20239;-67
2023/07/03 05:53:11;;;;;;;19.63;6.20;;;;;;;20.69;47.78;99632.06;4192137;28;20266;-65
2023/07/03 05:55:37;;;;;;;17.00;6.57;;;;;;;20.83;47.46;99640.16;4221481;28;20665;-67
2023/07/03 05:58:04;;;;;;;14.53;5.90;;;;;;;20.67;47.66;99649.84;4219380;28;21300;-66
2023/07/03 06:00:31;;;;;;;10.90;5.00;;;;;;;20.72;47.24;99659.13;4213444;28;20233;-65
2023/07/03 06:02:59;;;;;;;17.53;5.97;;;;;;;21.05;45.73;99656.94;4221272;28;23790;-65
2023/07/03 06:05:26;;;;;;;12.57;5.40;;;;;;;21.75;45.19;99658.13;4206425;28;20250;-64
2023/07/03 06:07:52;;;;;;;14.80;5.60;;;;;;;22.11;44.34;99658.91;4211264;28;23348;-63
2023/07/03 06:10:19;;;;;;;12.00;5.30;;;;;;;22.31;44.21;99668.69;4211280;28;21218;-67
2023/07/03 06:12:46;;;;;;;17.00;5.57;;;;;;;23.97;41.59;99659.47;4217578;28;20727;-66
2023/07/03 06:15:13;;;;;;;11.77;5.00;;;;;;;24.24;40.66;99677.22;4215473;28;20240;-68
2023/07/03 06:17:40;;;;;;;12.90;5.13;;;;;;;23.82;39.55;99668.34;4222258;28;20285;-65
2023/07/03 06:20:10;;;;;;;16.50;5.67;;;;;;;23.81;39.78;99668.59;4225266;28;20236;-65
2023/07/03 06:22:39;;;;;;;14.20;5.77;;;;;;;23.01;42.26;99665.91;4218689;28;20841;-67
2023/07/03 06:25:06;;;;;;;14.27;5.80;;;;;;;23.08;41.30;99674.88;4186993;28;25597;-64
2023/07/03 06:27:34;;;;;;;12.97;5.63;;;;;;;24.32;39.55;99674.84;4235373;28;20523;-65
2023/07/03 06:30:01;;;;;;;13.20;5.20;;;;;;;23.94;39.62;99673.78;4217816;28;20262;-64
2023/07/03 06:32:27;;;;;;;16.30;5.67;;;;;;;23.83;39.84;99671.94;4218663;28;20504;-64
2023/07/03 06:34:54;;;;;;;14.20;5.53;;;;;;;24.21;39.12;99675.78;4225543;28;20251;-63
2023/07/03 06:37:21;;;;;;;14.93;5.10;;;;;;;24.58;38.03;99674.31;4227661;28;20666;-64
2023/07/03 06:39:47;;;;;;;16.13;5.97;;;;;;;25.17;37.73;99681.88;4210835;28;20392;-65
2023/07/03 06:42:14;;;;;;;18.07;6.07;;;;;;;25.15;37.28;99671.03;4211072;28;20643;-63
2023/07/03 06:44:42;;;;;;;14.03;5.63;;;;;;;25.78;36.43;99687.06;4237954;28;21709;-64
2023/07/03 06:47:08;;;;;;;13.37;5.47;;;;;;;25.77;35.54;99673.50;4224782;28;22906;-64
2023/07/03 06:49:36;;;;;;;19.23;5.57;;;;;;;26.64;33.27;99670.31;4230077;28;20325;-67
2023/07/03 06:52:03;;;;;;;14.47;5.20;;;;;;;25.36;35.41;99674.00;4224151;28;22343;-66
2023/07/03 06:54:30;;;;;;;10.07;5.20;;;;;;;24.38;37.82;99675.75;4237794;28;21658;-64
2023/07/03 06:56:57;;;;;;;13.60;5.30;;;;;;;26.75;33.60;99671.16;4203601;28;21530;-66
2023/07/03 06:59:23;;;;;;;10.98;5.45;;;;;;;26.54;32.57;99667.50;4212541;28;24072;-62
2023/07/03 07:01:50;;;;;;;9.07;4.93;;;;;;;27.92;30.27;99668.72;4220359;28;20238;-64
2023/07/03 07:04:17;;;;;;;12.75;5.20;;;;;;;27.05;31.31;99672.38;4213140;28;20297;-67
2023/07/03 07:06:43;;;;;;;13.00;5.40;;;;;;;26.83;31.90;99673.44;4211353;28;20262;-65
2023/07/03 07:09:10;;;;;;;12.10;4.65;;;;;;;27.32;30.63;99669.31;4218040;28;20269;-64
2023/07/03 07:11:37;;;;;;;13.47;5.07;;;;;;;26.76;32.15;99672.88;4219287;28;21693;-63
2023/07/03 07:14:05;;;;;;;17.93;5.33;;;;;;;26.85;32.76;99673.97;4210279;28;20692;-63
2023/07/03 07:16:35;;;;;;;13.37;5.43;;;;;;;27.45;30.64;99667.97;4215884;28;21105;-63
2023/07/03 07:19:08;;;;;;;11.40;4.93;;;;;;;26.23;32.13;99661.81;4217827;28;20631;-64
2023/07/03 07:21:38;;;;;;;16.20;5.18;;;;;;;26.45;31.96;99669.97;4214099;28;20291;-65
2023/07/03 07:24:16;;;;;;;12.43;5.13;;;;;;;26.78;30.29;99665.09;4210563;28;21608;-66
2023/07/03 07:26:43;;;;;;;17.23;5.10;;;;;;;26.52;31.84;99675.25;4217719;28;20440;-63
2023/07/03 07:29:10;;;;;;;15.67;5.20;;;;;;;26.18;30.59;99670.13;4206144;28;20944;-63
2023/07/03 07:31:37;;;;;;;18.67;5.30;;;;;;;25.19;32.29;99673.28;4209332;28;21245;-62
2023/07/03 07:34:10;;;;;;;14.67;4.87;;;;;;;24.69;33.75;99681.66;4220800;28;20236;-61
2023/07/03 07:36:38;;;;;;;11.87;4.70;;;;;;;23.82;35.12;99660.03;4215026;28;20789;-64
2023/07/03 07:39:05;;;;;;;16.23;5.43;;;;;;;23.74;33.69;99675.16;4205769;28;20237;-63
2023/07/03 07:41:32;;;;;;;9.50;4.17;;;;;;;23.93;33.73;99672.09;4214045;28;20236;-65
2023/07/03 07:43:59;;;;;;;11.40;4.43;;;;;;;24.26;33.13;99675.88;4217312;28;20228;-64
2023/07/03 07:46:30;;;;;;;14.40;4.37;;;;;;;24.19;31.95;99673.28;4212179;28;20530;-65
2023/07/03 07:48:58;;;;;;;14.13;4.77;;;;;;;24.39;31.74;99671.03;4216996;28;20240;-65
2023/07/03 07:51:25;;;;;;;12.07;4.23;;;;;;;24.34;31.77;99675.44;4238928;28;20350;-63
2023/07/03 07:53:53;;;;;;;11.57;4.53;;;;;;;24.00;32.25;99671.94;4224518;28;20267;-64
2023/07/03 07:56:20;;;;;;;9.53;3.57;;;;;;;23.85;31.71;99669.75;4235245;28;21696;-65
2023/07/03 07:58:47;;;;;;;14.37;4.10;;;;;;;23.75;31.40;99662.16;4232623;28;21816;-65
2023/07/03 08:01:14;;;;;;;8.90;3.70;;;;;;;23.46;31.70;99667.78;4213347;28;20251;-66
2023/07/03 08:03:43;;;;;;;18.67;4.13;;;;;;;23.62;31.43;99670.81;4227628;28;20235;-64
2023/07/03 08:06:10;;;;;;;10.57;4.40;;;;;;;23.69;31.39;99665.94;4242418;28;20341;-64
2023/07/03 08:08:37;;;;;;;12.73;4.23;;;;;;;24.03;31.31;99665.88;4211464;28;20236;-61
2023/07/03 08:11:06;;;;;;;9.50;3.83;;;;;;;23.16;31.91;99668.94;4226825;28;20238;-67
2023/07/03 08:13:34;;;;;;;13.07;4.73;;;;;;;23.25;33.21;99669.38;4228825;28;25761;-67
2023/07/03 08:16:01;;;;;;;13.60;4.47;;;;;;;23.35;32.18;99672.31;4207566;28;20225;-66
2023/07/03 08:18:28;;;;;;;14.20;4.97;;;;;;;23.10;32.37;99673.53;4202442;28;20514;-63
2023/07/03 08:20:55;;;;;;;17.30;4.80;;;;;;;23.01;33.54;99671.41;4213506;28;21704;-68
2023/07/03 08:23:22;;;;;;;14.33;4.70;;;;;;;23.01;33.69;99675.00;4223977;28;21175;-67
2023/07/03 08:25:50;;;;;;;10.40;4.57;;;;;;;23.44;32.48;99661.69;4229704;28;20415;-70
2023/07/03 08:28:18;;;;;;;11.97;4.33;;;;;;;23.78;34.21;99672.72;4226891;28;20668;-70
2023/07/03 08:30:45;;;;;;;13.03;4.73;;;;;;;23.80;32.52;99673.28;4226251;28;21439;-70
2023/07/03 08:33:13;;;;;;;15.87;4.97;;;;;;;23.53;32.87;99670.38;4220144;28;22196;-69
2023/07/03 08:35:41;;;;;;;10.57;4.50;;;;;;;23.91;33.12;99671.47;4215730;28;23750;-68
2023/07/03 08:38:10;;;;;;;13.80;4.70;;;;;;;24.35;32.58;99671.56;4212898;28;20290;-71
2023/07/03 08:40:37;;;;;;;12.53;4.07;;;;;;;24.23;32.98;99675.56;4221413;28;20232;-72
2023/07/03 08:43:05;;;;;;;13.93;4.90;;;;;;;23.35;32.74;99663.19;4209999;28;20241;-68
2023/07/03 08:45:41;;;;;;;13.23;4.30;;;;;;;23.05;33.18;99669.81;4216095;28;20315;-70
2023/07/03 08:48:16;;;;;;;11.87;4.60;;;;;;;23.34;33.67;99658.78;4221289;28;21261;-68
2023/07/03 08:50:46;;;;;;;11.37;4.37;;;;;;;23.56;34.01;99656.91;4217433;28;20872;-67
2023/07/03 08:53:17;;;;;;;13.40;4.77;;;;;;;23.26;33.94;99652.56;4215755;28;21302;-69
2023/07/03 08:55:54;;;;;;;9.57;4.60;;;;;;;23.54;33.32;99661.84;4190317;28;20232;-69
2023/07/03 08:58:21;;;;;;;14.47;5.10;;;;;;;23.96;32.68;99660.56;4212220;28;20545;-71
2023/07/03 09:01:02;;;;;;;16.87;5.20;;;;;;;24.32;32.20;99666.53;4210166;28;21198;-70
2023/07/03 09:04:00;;;;;;;18.70;5.87;;;;;;;23.95;32.61;99664.41;4192119;28;20232;-70
2023/07/03 09:06:39;;;;;;;10.90;5.13;;;;;;;23.52;34.01;99658.50;4225825;28;20403;-72
2023/07/03 09:09:16;;;;;;;14.87;5.07;;;;;;;23.92;33.99;99669.56;4206257;28;20372;-69
2023/07/03 09:11:48;;;;;;;13.53;5.63;;;;;;;24.32;32.31;99674.00;4216519;28;20323;-68
2023/07/03 09:14:23;;;;;;;14.67;4.60;;;;;;;24.28;33.38;99672.84;4212926;28;20295;-68
2023/07/03 09:16:49;;;;;;;18.80;5.43;;;;;;;23.98;34.99;99672.16;4192708;28;21911;-72
2023/07/03 09:19:20;;;;;;;14.83;5.53;;;;;;;23.61;33.88;99677.41;4203363;28;20327;-69
2023/07/03 09:21:52;;;;;;;12.57;5.23;;;;;;;23.38;33.65;99671.81;4225185;28;20278;-71
2023/07/03 09:24:35;;;;;;;16.67;5.53;;;;;;;24.08;32.72;99670.63;4203849;28;20230;-69
2023/07/03 09:27:11;;;;;;;12.80;5.20;;;;;;;24.45;32.74;99673.63;4215889;28;20243;-70
2023/07/03 09:29:38;;;;;;;17.33;5.57;;;;;;;24.53;32.81;99675.06;4209804;28;20238;-68
2023/07/03 09:32:04;;;;;;;18.40;5.77;;;;;;;23.47;35.65;99663.09;4213020;28;20342;-68
2023/07/03 09:35:00;;;;;;;14.80;5.97;;;;;;;23.63;34.67;99664.19;4216180;28;20304;-70
2023/07/03 09:37:27;;;;;;;14.73;5.43;;;;;;;24.04;33.02;99662.03;4201475;28;23215;-69
2023/07/03 09:39:54;;;;;;;13.57;5.83;;;;;;;24.11;33.06;99653.56;4234115;28;22719;-69
2023/07/03 09:42:22;;;;;;;14.67;5.27;;;;;;;24.51;33.23;99653.22;4224353;28;20334;-69
2023/07/03 09:44:49;;;;;;;20.07;5.83;;;;;;;24.48;33.25;99658.44;4216842;28;20311;-70
2023/07/03 09:47:21;;;;;;;15.33;5.97;;;;;;;23.90;34.63;99651.31;4211149;28;20248;-69
2023/07/03 09:49:49;;;;;;;13.37;5.77;;;;;;;23.82;35.56;99639.88;4233316;28;20227;-68
2023/07/03 09:52:15;;;;;;;16.87;5.33;;;;;;;24.28;33.48;99634.97;4230855;28;20244;-70
2023/07/03 09:54:44;;;;;;;18.77;6.10;;;;;;;24.29;33.52;99649.63;4193555;28;21168;-67
2023/07/03 09:57:25;;;;;;;14.33;4.90;;;;;;;24.12;33.66;99633.94;4215973;28;20240;-69
2023/07/03 09:59:55;;;;;;;17.30;5.80;;;;;;;23.89;33.92;99649.63;4210010;28;20932;-69
2023/07/03 10:02:23;;;;;;;14.33;5.20;;;;;;;24.02;33.38;99642.94;4214031;28;20240;-70
2023/07/03 10:04:52;;;;;;;21.40;5.67;;;;;;;24.10;33.50;99651.88;4211896;28;20241;-69
2023/07/03 10:07:22;;;;;;;14.47;6.03;;;;;;;24.25;33.13;99641.00;4220533;28;20296;-72
2023/07/03 10:09:49;;;;;;;13.97;5.30;;;;;;;24.00;33.47;99645.13;4216638;28;20236;-70
2023/07/03 10:12:24;;;;;;;14.73;5.63;;;;;;;23.49;35.49;99644.34;4223159;28;20236;-69
2023/07/03 10:14:55;;;;;;;15.40;5.53;;;;;;;23.58;36.12;99645.59;4215562;28;20243;-69
2023/07/03 10:17:37;;;;;;;14.77;5.40;;;;;;;23.97;34.57;99648.41;4199307;28;20302;-70
2023/07/03 10:20:11;;;;;;;16.67;5.60;;;;;;;24.02;35.13;99636.56;4219000;28;20245;-72
2023/07/03 10:22:41;;;;;;;15.67;5.80;;;;;;;24.12;35.06;99633.94;4207793;28;20228;-71
2023/07/03 10:25:14;;;;;;;19.80;6.20;;;;;;;23.97;34.96;99640.13;4228687;28;20235;-70
2023/07/03 10:27:41;;;;;;;17.47;6.03;;;;;;;24.31;34.69;99641.91;4219873;28;21577;-69
2023/07/03 10:30:14;;;;;;;13.80;6.10;;;;;;;24.58;33.58;99636.41;4211915;28;20235;-71
2023/07/03 10:32:43;;;;;;;11.80;5.50;;;;;;;24.48;33.28;99644.59;4208587;28;20244;-69
2023/07/03 10:35:14;;;;;;;13.40;5.60;;;;;;;24.70;34.40;99632.69;4214577;28;20231;-70
2023/07/03 10:37:46;;;;;;;17.20;5.93;;;;;;;24.94;32.55;99630.41;4220941;28;20336;-71
2023/07/03 10:40:17;;;;;;;24.10;6.13;;;;;;;24.93;32.79;99620.44;4218327;28;20280;-71
2023/07/03 10:42:49;;;;;;;13.97;5.83;;;;;;;24.97;32.67;99632.66;4208302;28;22636;-71
2023/07/03 10:45:16;;;;;;;17.70;6.00;;;;;;;24.71;33.89;99629.63;4199141;28;20232;-69
2023/07/03 10:47:58;;;;;;;16.67;5.73;;;;;;;24.30;33.22;99632.75;4215912;28;20311;-70
2023/07/03 10:50:31;;;;;;;16.93;5.80;;;;;;;24.83;32.31;99633.09;4208759;28;20245;-69
2023/07/03 10:53:19;;;;;;;14.73;5.63;;;;;;;24.63;32.80;99621.78;4207854;28;20306;-71
2023/07/03 10:56:06;;;;;;;15.70;6.40;;;;;;;24.85;32.44;99621.75;4217966;28;20237;-70
2023/07/03 10:58:42;;;;;;;23.83;6.10;;;;;;;25.09;31.32;99627.78;4242481;28;20412;-68
2023/07/03 11:01:50;;;;;;;16.73;6.07;;;;;;;24.55;32.90;99631.41;4202808;28;21126;-68
2023/07/03 11:04:23;;;;;;;17.53;5.40;;;;;;;24.24;33.78;99619.97;4201355;28;20374;-68
2023/07/03 11:07:30;;;;;;;17.70;5.70;;;;;;;24.78;31.05;99610.88;4218849;28;20244;-68
2023/07/03 11:10:06;;;;;;;15.37;5.87;;;;;;;24.61;31.32;99626.75;4206657;28;20337;-69
2023/07/03 11:12:49;;;;;;;17.10;5.90;;;;;;;24.50;31.64;99618.34;4219418;28;20324;-68
2023/07/03 11:15:30;;;;;;;13.33;5.53;;;;;;;24.41;32.63;99616.31;4210103;28;20329;-72
2023/07/03 11:18:34;;;;;;;13.43;5.83;;;;;;;23.94;33.03;99615.72;4219769;28;20235;-70
2023/07/03 11:21:08;;;;;;;14.13;5.73;;;;;;;24.05;34.22;99617.56;4228197;28;20372;-68
2023/07/03 11:23:52;;;;;;;15.67;5.80;;;;;;;24.01;34.03;99610.84;4199883;28;20240;-71
2023/07/03 11:26:36;;;;;;;20.93;6.00;;;;;;;24.36;34.04;99608.78;4214894;28;20457;-70
2023/07/03 11:29:08;;;;;;;22.30;5.97;;;;;;;24.36;33.71;99614.31;4217944;28;20962;-67
2023/07/03 11:31:38;;;;;;;19.50;6.20;;;;;;;23.96;34.99;99618.22;4219106;28;20555;-69
2023/07/03 11:34:11;;;;;;;14.80;5.77;;;;;;;23.92;34.59;99611.53;4217767;28;20308;-68